| Date | Time | Temp. (oF) | Dew Point (oF) | Rel. Hum. (%) | Press. (in.) | Wind Dir. | Wind Speed (mph) | Hourly Rainfall (in.) |
|
|---|---|---|---|---|---|---|---|---|---|
| 1 | 03/12 | 00:00 | 52 | 48 | 88 | 29.96 | ESE | 0 | 0.00 |
| 2 | 03/11 | 23:00 | 54 | 52 | 93 | 29.97 | ESE | 0 | 0.00 |
| 3 | 03/11 | 22:00 | 54 | 52 | 93 | 29.97 | SE | 0 | 0.00 |
| 4 | 03/11 | 21:00 | 54 | 52 | 93 | 29.96 | S | 0 | 0.00 |
| 5 | 03/11 | 20:00 | 55 | 52 | 91 | 29.96 | S | 0 | 0.00 |
| 6 | 03/11 | 19:00 | 55 | 52 | 90 | 29.94 | E | 0 | 0.00 |
| 7 | 03/11 | 18:00 | 55 | 51 | 88 | 29.95 | SE | 0 | 0.00 |
| 8 | 03/11 | 17:00 | 58 | 50 | 77 | 29.93 | SSE | 8 | 0.00 |
| 9 | 03/11 | 16:00 | 60 | 50 | 70 | 29.93 | S | 4 | 0.00 |
| 10 | 03/11 | 15:00 | 63 | 50 | 64 | 29.92 | S | 6 | 0.00 |
| 11 | 03/11 | 14:00 | 62 | 50 | 65 | 29.92 | SSW | 5 | 0.00 |
| 12 | 03/11 | 13:00 | 62 | 49 | 63 | 29.95 | S | 2 | 0.00 |
| 13 | 03/11 | 12:00 | 60 | 48 | 65 | 29.98 | S | 5 | 0.00 |
| 14 | 03/11 | 11:00 | 57 | 46 | 69 | 30.00 | SE | 6 | 0.00 |
| 15 | 03/11 | 10:00 | 52 | 45 | 77 | 30.00 | ENE | 1 | 0.00 |
| 16 | 03/11 | 09:00 | 49 | 43 | 82 | 30.00 | ESE | 6 | 0.00 |
| 17 | 03/11 | 08:00 | 45 | 41 | 88 | 30.01 | E | 6 | 0.00 |
| 18 | 03/11 | 07:00 | 41 | 38 | 92 | 29.99 | ENE | 0 | 0.00 |
| 19 | 03/11 | 06:00 | 41 | 37 | 87 | 29.97 | ENE | 0 | 0.00 |
| 20 | 03/11 | 05:00 | 42 | 37 | 84 | 29.96 | E | 0 | 0.00 |
| 21 | 03/11 | 04:00 | 43 | 37 | 81 | 29.96 | ENE | 0 | 0.00 |
| 22 | 03/11 | 03:00 | 44 | 37 | 78 | 29.96 | ENE | 0 | 0.00 |
| 23 | 03/11 | 02:00 | 46 | 39 | 78 | 29.97 | NE | 0 | 0.00 |
| 24 | 03/11 | 01:00 | 44 | 36 | 74 | 29.96 | E | 0 | 0.00 |